sensor_id;sensor_type;location;lat;lon;timestamp;P1;durP1;ratioP1;P2;durP2;ratioP2
2257;SDS011;1136;51.574;7.706;2023-06-05T00:02:16;4.00;;;3.00;;
2257;SDS011;1136;51.574;7.706;2023-06-05T00:05:24;4.93;;;3.43;;
2257;SDS011;1136;51.574;7.706;2023-06-05T00:08:32;4.53;;;3.40;;
2257;SDS011;1136;51.574;7.706;2023-06-05T00:11:40;4.23;;;3.67;;
2257;SDS011;1136;51.574;7.706;2023-06-05T00:14:47;5.40;;;3.37;;
2257;SDS011;1136;51.574;7.706;2023-06-05T00:17:54;7.37;;;3.83;;
2257;SDS011;1136;51.574;7.706;2023-06-05T00:21:02;5.43;;;3.50;;
2257;SDS011;1136;51.574;7.706;2023-06-05T00:24:10;4.90;;;3.17;;
2257;SDS011;1136;51.574;7.706;2023-06-05T00:27:18;3.77;;;3.40;;
2257;SDS011;1136;51.574;7.706;2023-06-05T00:30:26;3.50;;;3.20;;
2257;SDS011;1136;51.574;7.706;2023-06-05T00:33:33;5.40;;;2.90;;
2257;SDS011;1136;51.574;7.706;2023-06-05T00:36:41;6.53;;;3.73;;
2257;SDS011;1136;51.574;7.706;2023-06-05T00:39:48;5.83;;;3.10;;
2257;SDS011;1136;51.574;7.706;2023-06-05T00:42:55;3.50;;;3.20;;
2257;SDS011;1136;51.574;7.706;2023-06-05T00:46:03;3.77;;;3.43;;
2257;SDS011;1136;51.574;7.706;2023-06-05T00:49:11;3.77;;;3.30;;
2257;SDS011;1136;51.574;7.706;2023-06-05T00:52:18;6.10;;;3.47;;
2257;SDS011;1136;51.574;7.706;2023-06-05T00:55:26;3.97;;;3.57;;
2257;SDS011;1136;51.574;7.706;2023-06-05T00:58:34;3.63;;;3.33;;
2257;SDS011;1136;51.574;7.706;2023-06-05T01:01:41;14.90;;;4.20;;
2257;SDS011;1136;51.574;7.706;2023-06-05T01:04:49;5.10;;;3.53;;
2257;SDS011;1136;51.574;7.706;2023-06-05T01:07:57;5.63;;;3.57;;
2257;SDS011;1136;51.574;7.706;2023-06-05T01:11:07;5.03;;;4.40;;
2257;SDS011;1136;51.574;7.706;2023-06-05T01:14:20;3.43;;;3.17;;
2257;SDS011;1136;51.574;7.706;2023-06-05T01:17:29;4.50;;;4.10;;
2257;SDS011;1136;51.574;7.706;2023-06-05T01:20:39;4.30;;;3.90;;
2257;SDS011;1136;51.574;7.706;2023-06-05T01:23:47;6.07;;;4.03;;
2257;SDS011;1136;51.574;7.706;2023-06-05T01:27:15;5.30;;;3.80;;
2257;SDS011;1136;51.574;7.706;2023-06-05T01:30:30;4.20;;;3.80;;
2257;SDS011;1136;51.574;7.706;2023-06-05T01:34:08;6.17;;;3.90;;
2257;SDS011;1136;51.574;7.706;2023-06-05T01:37:20;7.50;;;3.90;;
2257;SDS011;1136;51.574;7.706;2023-06-05T01:40:32;4.67;;;3.90;;
2257;SDS011;1136;51.574;7.706;2023-06-05T01:43:40;5.20;;;3.90;;
2257;SDS011;1136;51.574;7.706;2023-06-05T01:46:48;4.90;;;3.87;;
2257;SDS011;1136;51.574;7.706;2023-06-05T01:49:56;5.30;;;3.90;;
2257;SDS011;1136;51.574;7.706;2023-06-05T01:53:04;5.67;;;3.33;;
2257;SDS011;1136;51.574;7.706;2023-06-05T01:56:11;4.67;;;4.00;;
2257;SDS011;1136;51.574;7.706;2023-06-05T01:59:19;4.90;;;3.67;;
2257;SDS011;1136;51.574;7.706;2023-06-05T02:02:26;4.53;;;4.10;;
2257;SDS011;1136;51.574;7.706;2023-06-05T02:05:35;4.87;;;3.57;;
2257;SDS011;1136;51.574;7.706;2023-06-05T02:08:43;5.17;;;4.27;;
2257;SDS011;1136;51.574;7.706;2023-06-05T02:11:50;4.00;;;3.53;;
2257;SDS011;1136;51.574;7.706;2023-06-05T02:15:00;7.10;;;3.80;;
2257;SDS011;1136;51.574;7.706;2023-06-05T02:18:07;8.83;;;4.33;;
2257;SDS011;1136;51.574;7.706;2023-06-05T02:21:15;4.83;;;4.33;;
2257;SDS011;1136;51.574;7.706;2023-06-05T02:24:22;4.60;;;4.17;;
2257;SDS011;1136;51.574;7.706;2023-06-05T02:27:30;5.40;;;4.90;;
2257;SDS011;1136;51.574;7.706;2023-06-05T02:30:37;8.40;;;4.47;;
2257;SDS011;1136;51.574;7.706;2023-06-05T02:33:45;4.33;;;3.93;;
2257;SDS011;1136;51.574;7.706;2023-06-05T02:36:52;5.90;;;4.83;;
2257;SDS011;1136;51.574;7.706;2023-06-05T02:40:00;8.33;;;4.73;;
2257;SDS011;1136;51.574;7.706;2023-06-05T02:43:07;4.87;;;4.37;;
2257;SDS011;1136;51.574;7.706;2023-06-05T02:46:15;4.17;;;3.80;;
2257;SDS011;1136;51.574;7.706;2023-06-05T02:49:22;5.57;;;4.77;;
2257;SDS011;1136;51.574;7.706;2023-06-05T02:52:30;5.00;;;4.47;;
2257;SDS011;1136;51.574;7.706;2023-06-05T02:55:42;6.33;;;5.40;;
2257;SDS011;1136;51.574;7.706;2023-06-05T02:58:50;6.17;;;4.87;;
2257;SDS011;1136;51.574;7.706;2023-06-05T03:01:58;5.20;;;4.20;;
2257;SDS011;1136;51.574;7.706;2023-06-05T03:05:06;5.43;;;4.30;;
2257;SDS011;1136;51.574;7.706;2023-06-05T03:08:14;4.97;;;4.37;;
2257;SDS011;1136;51.574;7.706;2023-06-05T03:11:21;5.23;;;4.73;;
2257;SDS011;1136;51.574;7.706;2023-06-05T03:14:31;5.33;;;4.83;;
2257;SDS011;1136;51.574;7.706;2023-06-05T03:17:39;7.77;;;5.20;;
2257;SDS011;1136;51.574;7.706;2023-06-05T03:20:47;6.03;;;5.03;;
2257;SDS011;1136;51.574;7.706;2023-06-05T03:23:56;5.13;;;4.73;;
2257;SDS011;1136;51.574;7.706;2023-06-05T03:27:04;4.23;;;3.93;;
2257;SDS011;1136;51.574;7.706;2023-06-05T03:30:12;6.27;;;5.10;;
2257;SDS011;1136;51.574;7.706;2023-06-05T03:33:23;5.23;;;4.83;;
2257;SDS011;1136;51.574;7.706;2023-06-05T03:36:30;6.80;;;6.03;;
2257;SDS011;1136;51.574;7.706;2023-06-05T03:39:40;10.17;;;4.87;;
2257;SDS011;1136;51.574;7.706;2023-06-05T03:42:47;5.23;;;4.80;;
2257;SDS011;1136;51.574;7.706;2023-06-05T03:45:55;5.30;;;4.80;;
2257;SDS011;1136;51.574;7.706;2023-06-05T03:49:02;7.50;;;5.60;;
2257;SDS011;1136;51.574;7.706;2023-06-05T03:52:16;6.90;;;5.57;;
2257;SDS011;1136;51.574;7.706;2023-06-05T03:55:23;4.80;;;4.40;;
2257;SDS011;1136;51.574;7.706;2023-06-05T03:58:31;5.07;;;4.37;;
2257;SDS011;1136;51.574;7.706;2023-06-05T04:01:38;7.87;;;4.60;;
2257;SDS011;1136;51.574;7.706;2023-06-05T04:04:45;4.60;;;4.20;;
2257;SDS011;1136;51.574;7.706;2023-06-05T04:07:53;4.47;;;4.07;;
2257;SDS011;1136;51.574;7.706;2023-06-05T04:11:01;5.10;;;4.60;;
2257;SDS011;1136;51.574;7.706;2023-06-05T04:14:09;5.50;;;5.00;;
2257;SDS011;1136;51.574;7.706;2023-06-05T04:17:17;6.33;;;4.80;;
2257;SDS011;1136;51.574;7.706;2023-06-05T04:20:24;5.40;;;4.90;;
2257;SDS011;1136;51.574;7.706;2023-06-05T04:23:31;8.20;;;4.70;;
2257;SDS011;1136;51.574;7.706;2023-06-05T04:26:40;5.63;;;5.00;;
2257;SDS011;1136;51.574;7.706;2023-06-05T04:29:50;10.20;;;5.40;;
2257;SDS011;1136;51.574;7.706;2023-06-05T04:32:59;6.87;;;4.97;;
2257;SDS011;1136;51.574;7.706;2023-06-05T04:36:06;6.33;;;5.40;;
2257;SDS011;1136;51.574;7.706;2023-06-05T04:39:14;5.87;;;5.37;;
2257;SDS011;1136;51.574;7.706;2023-06-05T04:42:21;7.00;;;6.40;;
2257;SDS011;1136;51.574;7.706;2023-06-05T04:45:29;6.77;;;6.10;;
2257;SDS011;1136;51.574;7.706;2023-06-05T04:48:36;6.83;;;6.00;;
2257;SDS011;1136;51.574;7.706;2023-06-05T04:51:44;6.83;;;6.23;;
2257;SDS011;1136;51.574;7.706;2023-06-05T04:54:51;7.50;;;6.60;;
2257;SDS011;1136;51.574;7.706;2023-06-05T04:57:59;5.50;;;5.00;;
2257;SDS011;1136;51.574;7.706;2023-06-05T05:01:07;6.97;;;6.23;;
2257;SDS011;1136;51.574;7.706;2023-06-05T05:04:15;5.97;;;5.47;;
2257;SDS011;1136;51.574;7.706;2023-06-05T05:07:23;7.03;;;6.33;;
2257;SDS011;1136;51.574;7.706;2023-06-05T05:10:33;6.67;;;6.10;;
2257;SDS011;1136;51.574;7.706;2023-06-05T05:13:40;8.97;;;6.10;;
2257;SDS011;1136;51.574;7.706;2023-06-05T05:16:48;8.00;;;7.40;;
2257;SDS011;1136;51.574;7.706;2023-06-05T05:19:56;7.40;;;5.93;;
2257;SDS011;1136;51.574;7.706;2023-06-05T05:23:04;7.53;;;6.30;;
2257;SDS011;1136;51.574;7.706;2023-06-05T05:26:14;8.30;;;7.10;;
2257;SDS011;1136;51.574;7.706;2023-06-05T05:29:22;7.67;;;6.80;;
2257;SDS011;1136;51.574;7.706;2023-06-05T05:32:29;7.30;;;6.60;;
2257;SDS011;1136;51.574;7.706;2023-06-05T05:35:36;8.30;;;7.50;;
2257;SDS011;1136;51.574;7.706;2023-06-05T05:38:43;10.83;;;7.50;;
2257;SDS011;1136;51.574;7.706;2023-06-05T05:41:51;8.67;;;7.90;;
2257;SDS011;1136;51.574;7.706;2023-06-05T05:44:59;8.97;;;7.60;;
2257;SDS011;1136;51.574;7.706;2023-06-05T05:48:06;8.93;;;7.37;;
2257;SDS011;1136;51.574;7.706;2023-06-05T05:51:14;10.20;;;7.13;;
2257;SDS011;1136;51.574;7.706;2023-06-05T05:54:21;8.83;;;8.07;;
2257;SDS011;1136;51.574;7.706;2023-06-05T05:57:34;10.60;;;8.20;;
2257;SDS011;1136;51.574;7.706;2023-06-05T06:00:41;8.30;;;7.50;;
2257;SDS011;1136;51.574;7.706;2023-06-05T06:03:49;10.90;;;8.33;;
2257;SDS011;1136;51.574;7.706;2023-06-05T06:06:56;10.00;;;7.47;;
2257;SDS011;1136;51.574;7.706;2023-06-05T06:10:04;9.73;;;7.00;;
2257;SDS011;1136;51.574;7.706;2023-06-05T06:13:12;8.43;;;7.47;;
2257;SDS011;1136;51.574;7.706;2023-06-05T06:16:20;9.03;;;7.97;;
2257;SDS011;1136;51.574;7.706;2023-06-05T06:19:28;10.30;;;6.80;;
2257;SDS011;1136;51.574;7.706;2023-06-05T06:22:35;9.20;;;6.23;;
2257;SDS011;1136;51.574;7.706;2023-06-05T06:25:43;7.07;;;6.33;;
2257;SDS011;1136;51.574;7.706;2023-06-05T06:28:50;7.90;;;7.17;;
2257;SDS011;1136;51.574;7.706;2023-06-05T06:31:57;8.27;;;6.47;;
2257;SDS011;1136;51.574;7.706;2023-06-05T06:35:05;6.50;;;5.90;;
2257;SDS011;1136;51.574;7.706;2023-06-05T06:38:13;9.40;;;6.23;;
2257;SDS011;1136;51.574;7.706;2023-06-05T06:41:20;6.37;;;5.80;;
2257;SDS011;1136;51.574;7.706;2023-06-05T06:44:28;6.40;;;5.90;;
2257;SDS011;1136;51.574;7.706;2023-06-05T06:47:36;6.40;;;5.90;;
2257;SDS011;1136;51.574;7.706;2023-06-05T06:50:43;7.20;;;6.47;;
2257;SDS011;1136;51.574;7.706;2023-06-05T06:53:51;6.50;;;5.40;;
2257;SDS011;1136;51.574;7.706;2023-06-05T06:56:58;7.17;;;6.40;;
2257;SDS011;1136;51.574;7.706;2023-06-05T07:00:06;8.37;;;6.10;;
2257;SDS011;1136;51.574;7.706;2023-06-05T07:03:16;12.93;;;11.80;;
2257;SDS011;1136;51.574;7.706;2023-06-05T07:06:25;9.00;;;7.73;;
2257;SDS011;1136;51.574;7.706;2023-06-05T07:09:32;7.27;;;6.47;;
2257;SDS011;1136;51.574;7.706;2023-06-05T07:12:40;9.97;;;6.37;;
2257;SDS011;1136;51.574;7.706;2023-06-05T07:15:47;10.27;;;7.33;;
2257;SDS011;1136;51.574;7.706;2023-06-05T07:18:55;8.80;;;7.20;;
2257;SDS011;1136;51.574;7.706;2023-06-05T07:22:02;7.27;;;5.97;;
2257;SDS011;1136;51.574;7.706;2023-06-05T07:25:14;7.07;;;6.20;;
2257;SDS011;1136;51.574;7.706;2023-06-05T07:28:23;7.40;;;5.43;;
2257;SDS011;1136;51.574;7.706;2023-06-05T07:31:32;9.27;;;5.47;;
2257;SDS011;1136;51.574;7.706;2023-06-05T07:34:40;9.80;;;6.43;;
2257;SDS011;1136;51.574;7.706;2023-06-05T07:37:47;7.27;;;6.57;;
2257;SDS011;1136;51.574;7.706;2023-06-05T07:40:55;6.67;;;6.07;;
2257;SDS011;1136;51.574;7.706;2023-06-05T07:44:06;10.07;;;5.50;;
2257;SDS011;1136;51.574;7.706;2023-06-05T07:47:17;8.13;;;5.67;;
2257;SDS011;1136;51.574;7.706;2023-06-05T07:50:24;6.30;;;5.70;;
2257;SDS011;1136;51.574;7.706;2023-06-05T07:53:32;6.00;;;5.40;;
2257;SDS011;1136;51.574;7.706;2023-06-05T07:56:40;9.07;;;6.87;;
2257;SDS011;1136;51.574;7.706;2023-06-05T07:59:47;6.30;;;5.50;;
2257;SDS011;1136;51.574;7.706;2023-06-05T08:02:56;6.53;;;5.90;;
2257;SDS011;1136;51.574;7.706;2023-06-05T08:06:04;5.57;;;5.00;;
2257;SDS011;1136;51.574;7.706;2023-06-05T08:09:12;7.43;;;6.43;;
2257;SDS011;1136;51.574;7.706;2023-06-05T08:12:19;8.33;;;5.87;;
2257;SDS011;1136;51.574;7.706;2023-06-05T08:15:26;5.30;;;4.90;;
2257;SDS011;1136;51.574;7.706;2023-06-05T08:18:34;5.70;;;5.17;;
2257;SDS011;1136;51.574;7.706;2023-06-05T08:21:41;5.70;;;5.20;;
2257;SDS011;1136;51.574;7.706;2023-06-05T08:24:48;7.60;;;5.93;;
2257;SDS011;1136;51.574;7.706;2023-06-05T08:27:57;14.50;;;6.53;;
2257;SDS011;1136;51.574;7.706;2023-06-05T08:31:04;7.17;;;6.13;;
2257;SDS011;1136;51.574;7.706;2023-06-05T08:34:13;6.30;;;5.33;;
2257;SDS011;1136;51.574;7.706;2023-06-05T08:36:39;6.80;;;5.73;;
2257;SDS011;1136;51.574;7.706;2023-06-05T08:39:44;4.73;;;4.33;;
2257;SDS011;1136;51.574;7.706;2023-06-05T08:42:51;5.47;;;4.87;;
2257;SDS011;1136;51.574;7.706;2023-06-05T08:45:18;6.33;;;5.67;;
2257;SDS011;1136;51.574;7.706;2023-06-05T08:47:46;6.57;;;5.10;;
2257;SDS011;1136;51.574;7.706;2023-06-05T08:50:16;7.93;;;5.30;;
2257;SDS011;1136;51.574;7.706;2023-06-05T08:52:43;6.20;;;5.50;;
2257;SDS011;1136;51.574;7.706;2023-06-05T08:55:12;5.13;;;4.60;;
2257;SDS011;1136;51.574;7.706;2023-06-05T08:57:41;4.63;;;4.13;;
2257;SDS011;1136;51.574;7.706;2023-06-05T09:00:09;6.03;;;4.10;;
2257;SDS011;1136;51.574;7.706;2023-06-05T09:02:37;7.27;;;4.87;;
2257;SDS011;1136;51.574;7.706;2023-06-05T09:05:06;5.30;;;4.90;;
2257;SDS011;1136;51.574;7.706;2023-06-05T09:07:33;4.20;;;3.80;;
2257;SDS011;1136;51.574;7.706;2023-06-05T09:10:00;5.77;;;3.97;;
2257;SDS011;1136;51.574;7.706;2023-06-05T09:12:26;4.77;;;4.37;;
2257;SDS011;1136;51.574;7.706;2023-06-05T09:14:53;7.13;;;5.23;;
2257;SDS011;1136;51.574;7.706;2023-06-05T09:17:23;4.90;;;4.50;;
2257;SDS011;1136;51.574;7.706;2023-06-05T09:19:50;6.87;;;4.10;;
2257;SDS011;1136;51.574;7.706;2023-06-05T09:22:17;6.57;;;6.07;;
2257;SDS011;1136;51.574;7.706;2023-06-05T09:24:59;6.30;;;5.60;;
2257;SDS011;1136;51.574;7.706;2023-06-05T09:27:27;8.30;;;6.00;;
2257;SDS011;1136;51.574;7.706;2023-06-05T09:30:00;6.90;;;4.97;;
2257;SDS011;1136;51.574;7.706;2023-06-05T09:32:29;5.87;;;5.37;;
2257;SDS011;1136;51.574;7.706;2023-06-05T09:34:56;6.23;;;5.53;;
2257;SDS011;1136;51.574;7.706;2023-06-05T09:37:34;7.37;;;5.57;;
2257;SDS011;1136;51.574;7.706;2023-06-05T09:40:04;5.90;;;5.40;;
2257;SDS011;1136;51.574;7.706;2023-06-05T09:42:32;7.30;;;5.67;;
2257;SDS011;1136;51.574;7.706;2023-06-05T09:45:00;6.87;;;5.60;;
2257;SDS011;1136;51.574;7.706;2023-06-05T09:47:27;7.00;;;5.03;;
2257;SDS011;1136;51.574;7.706;2023-06-05T09:50:08;5.30;;;5.00;;
2257;SDS011;1136;51.574;7.706;2023-06-05T09:52:47;5.70;;;5.20;;
2257;SDS011;1136;51.574;7.706;2023-06-05T09:55:14;4.83;;;4.53;;
2257;SDS011;1136;51.574;7.706;2023-06-05T09:57:41;6.20;;;5.80;;
2257;SDS011;1136;51.574;7.706;2023-06-05T10:00:08;7.27;;;5.23;;
2257;SDS011;1136;51.574;7.706;2023-06-05T10:02:38;5.63;;;5.20;;
2257;SDS011;1136;51.574;7.706;2023-06-05T10:05:05;6.33;;;5.57;;
2257;SDS011;1136;51.574;7.706;2023-06-05T10:07:33;8.67;;;5.60;;
2257;SDS011;1136;51.574;7.706;2023-06-05T10:10:03;6.53;;;5.43;;
2257;SDS011;1136;51.574;7.706;2023-06-05T10:12:31;5.23;;;4.77;;
2257;SDS011;1136;51.574;7.706;2023-06-05T10:14:57;6.20;;;5.60;;
2257;SDS011;1136;51.574;7.706;2023-06-05T10:17:24;5.23;;;4.83;;
2257;SDS011;1136;51.574;7.706;2023-06-05T10:19:52;9.67;;;5.50;;
2257;SDS011;1136;51.574;7.706;2023-06-05T10:22:19;5.80;;;5.30;;
2257;SDS011;1136;51.574;7.706;2023-06-05T10:24:56;5.87;;;5.47;;
2257;SDS011;1136;51.574;7.706;2023-06-05T10:35:59;5.63;;;5.20;;
2257;SDS011;1136;51.574;7.706;2023-06-05T10:38:36;5.80;;;5.30;;
2257;SDS011;1136;51.574;7.706;2023-06-05T10:41:05;5.97;;;4.93;;
2257;SDS011;1136;51.574;7.706;2023-06-05T10:43:54;6.90;;;5.10;;
2257;SDS011;1136;51.574;7.706;2023-06-05T10:46:40;5.87;;;5.43;;
2257;SDS011;1136;51.574;7.706;2023-06-05T10:49:16;4.90;;;4.60;;
2257;SDS011;1136;51.574;7.706;2023-06-05T10:51:50;4.57;;;4.23;;
2257;SDS011;1136;51.574;7.706;2023-06-05T10:59:17;8.00;;;5.07;;
2257;SDS011;1136;51.574;7.706;2023-06-05T11:07:20;5.60;;;4.57;;
2257;SDS011;1136;51.574;7.706;2023-06-05T11:15:15;5.10;;;4.70;;
2257;SDS011;1136;51.574;7.706;2023-06-05T11:17:43;5.40;;;5.10;;
2257;SDS011;1136;51.574;7.706;2023-06-05T11:30:28;4.10;;;3.70;;
2257;SDS011;1136;51.574;7.706;2023-06-05T11:33:13;4.37;;;3.97;;
2257;SDS011;1136;51.574;7.706;2023-06-05T11:35:43;5.57;;;4.60;;
2257;SDS011;1136;51.574;7.706;2023-06-05T11:38:21;7.97;;;4.17;;
2257;SDS011;1136;51.574;7.706;2023-06-05T11:40:51;4.93;;;4.43;;
2257;SDS011;1136;51.574;7.706;2023-06-05T11:43:18;4.80;;;4.50;;
2257;SDS011;1136;51.574;7.706;2023-06-05T11:45:48;9.87;;;9.17;;
2257;SDS011;1136;51.574;7.706;2023-06-05T11:48:17;4.53;;;4.23;;
2257;SDS011;1136;51.574;7.706;2023-06-05T11:51:03;4.17;;;3.97;;
2257;SDS011;1136;51.574;7.706;2023-06-05T11:53:32;10.50;;;4.00;;
2257;SDS011;1136;51.574;7.706;2023-06-05T11:55:59;3.90;;;3.70;;
2257;SDS011;1136;51.574;7.706;2023-06-05T11:58:30;5.33;;;4.27;;
2257;SDS011;1136;51.574;7.706;2023-06-05T12:01:04;4.00;;;3.63;;
2257;SDS011;1136;51.574;7.706;2023-06-05T12:03:35;5.43;;;4.47;;
2257;SDS011;1136;51.574;7.706;2023-06-05T12:06:03;3.80;;;3.60;;
2257;SDS011;1136;51.574;7.706;2023-06-05T12:08:30;4.07;;;3.87;;
2257;SDS011;1136;51.574;7.706;2023-06-05T12:11:12;4.33;;;3.93;;
2257;SDS011;1136;51.574;7.706;2023-06-05T12:13:55;4.67;;;4.00;;
2257;SDS011;1136;51.574;7.706;2023-06-05T12:16:35;3.90;;;3.60;;
2257;SDS011;1136;51.574;7.706;2023-06-05T12:19:16;5.20;;;3.50;;
2257;SDS011;1136;51.574;7.706;2023-06-05T12:21:45;3.47;;;3.13;;
2257;SDS011;1136;51.574;7.706;2023-06-05T12:24:26;4.90;;;3.50;;
2257;SDS011;1136;51.574;7.706;2023-06-05T12:29:25;3.10;;;2.90;;
2257;SDS011;1136;51.574;7.706;2023-06-05T12:31:56;3.90;;;3.20;;
2257;SDS011;1136;51.574;7.706;2023-06-05T12:34:40;3.90;;;3.50;;
2257;SDS011;1136;51.574;7.706;2023-06-05T12:37:27;4.33;;;3.50;;
2257;SDS011;1136;51.574;7.706;2023-06-05T12:39:59;4.07;;;3.20;;
2257;SDS011;1136;51.574;7.706;2023-06-05T12:42:27;3.03;;;2.80;;
2257;SDS011;1136;51.574;7.706;2023-06-05T12:44:54;2.80;;;2.60;;
2257;SDS011;1136;51.574;7.706;2023-06-05T12:47:21;3.53;;;3.23;;
2257;SDS011;1136;51.574;7.706;2023-06-05T12:49:48;3.17;;;2.87;;
2257;SDS011;1136;51.574;7.706;2023-06-05T12:52:15;3.67;;;2.90;;
2257;SDS011;1136;51.574;7.706;2023-06-05T12:54:42;6.20;;;3.10;;
2257;SDS011;1136;51.574;7.706;2023-06-05T12:57:09;14.57;;;3.80;;
2257;SDS011;1136;51.574;7.706;2023-06-05T12:59:38;9.70;;;3.37;;
2257;SDS011;1136;51.574;7.706;2023-06-05T13:02:05;20.20;;;9.70;;
2257;SDS011;1136;51.574;7.706;2023-06-05T13:04:33;4.43;;;2.90;;
2257;SDS011;1136;51.574;7.706;2023-06-05T13:07:02;2.90;;;2.70;;
2257;SDS011;1136;51.574;7.706;2023-06-05T13:09:30;3.50;;;3.20;;
2257;SDS011;1136;51.574;7.706;2023-06-05T13:11:56;2.93;;;2.70;;
2257;SDS011;1136;51.574;7.706;2023-06-05T13:14:27;4.90;;;3.63;;
2257;SDS011;1136;51.574;7.706;2023-06-05T13:16:54;4.10;;;3.13;;
2257;SDS011;1136;51.574;7.706;2023-06-05T13:19:21;3.73;;;2.80;;
2257;SDS011;1136;51.574;7.706;2023-06-05T13:21:48;3.33;;;3.03;;
2257;SDS011;1136;51.574;7.706;2023-06-05T13:24:14;5.40;;;3.10;;
2257;SDS011;1136;51.574;7.706;2023-06-05T13:26:42;3.30;;;3.00;;
2257;SDS011;1136;51.574;7.706;2023-06-05T13:29:09;3.37;;;3.17;;
2257;SDS011;1136;51.574;7.706;2023-06-05T13:31:36;3.00;;;2.80;;
2257;SDS011;1136;51.574;7.706;2023-06-05T13:34:03;3.60;;;3.30;;
2257;SDS011;1136;51.574;7.706;2023-06-05T13:36:31;3.93;;;2.87;;
2257;SDS011;1136;51.574;7.706;2023-06-05T13:38:58;3.27;;;3.07;;
2257;SDS011;1136;51.574;7.706;2023-06-05T13:41:24;5.33;;;3.03;;
2257;SDS011;1136;51.574;7.706;2023-06-05T13:43:52;3.47;;;2.73;;
2257;SDS011;1136;51.574;7.706;2023-06-05T13:46:19;4.87;;;2.97;;
2257;SDS011;1136;51.574;7.706;2023-06-05T13:48:46;2.73;;;2.50;;
2257;SDS011;1136;51.574;7.706;2023-06-05T13:51:13;4.10;;;3.70;;
2257;SDS011;1136;51.574;7.706;2023-06-05T13:53:40;4.37;;;3.97;;
2257;SDS011;1136;51.574;7.706;2023-06-05T13:56:07;3.70;;;3.50;;
2257;SDS011;1136;51.574;7.706;2023-06-05T13:58:34;4.23;;;2.63;;
2257;SDS011;1136;51.574;7.706;2023-06-05T14:01:01;5.80;;;3.50;;
2257;SDS011;1136;51.574;7.706;2023-06-05T14:03:27;3.30;;;3.00;;
2257;SDS011;1136;51.574;7.706;2023-06-05T14:05:54;3.40;;;3.10;;
2257;SDS011;1136;51.574;7.706;2023-06-05T14:08:21;4.07;;;3.63;;
2257;SDS011;1136;51.574;7.706;2023-06-05T14:10:47;3.90;;;3.60;;
2257;SDS011;1136;51.574;7.706;2023-06-05T14:13:14;5.20;;;3.53;;
2257;SDS011;1136;51.574;7.706;2023-06-05T14:15:42;5.10;;;4.27;;
2257;SDS011;1136;51.574;7.706;2023-06-05T14:18:08;4.00;;;3.70;;
2257;SDS011;1136;51.574;7.706;2023-06-05T14:20:35;4.43;;;4.03;;
2257;SDS011;1136;51.574;7.706;2023-06-05T14:23:02;3.83;;;3.40;;
2257;SDS011;1136;51.574;7.706;2023-06-05T14:25:29;6.83;;;3.43;;
2257;SDS011;1136;51.574;7.706;2023-06-05T14:27:57;3.87;;;3.53;;
2257;SDS011;1136;51.574;7.706;2023-06-05T14:30:24;4.10;;;3.80;;
2257;SDS011;1136;51.574;7.706;2023-06-05T14:32:54;6.23;;;4.70;;
2257;SDS011;1136;51.574;7.706;2023-06-05T14:35:22;4.03;;;3.80;;
2257;SDS011;1136;51.574;7.706;2023-06-05T14:37:49;4.20;;;3.80;;
2257;SDS011;1136;51.574;7.706;2023-06-05T14:40:15;5.00;;;4.43;;
2257;SDS011;1136;51.574;7.706;2023-06-05T14:42:42;5.77;;;3.80;;
2257;SDS011;1136;51.574;7.706;2023-06-05T14:45:09;4.83;;;3.90;;
2257;SDS011;1136;51.574;7.706;2023-06-05T14:47:37;5.83;;;4.30;;
2257;SDS011;1136;51.574;7.706;2023-06-05T14:50:05;6.43;;;4.33;;
2257;SDS011;1136;51.574;7.706;2023-06-05T14:52:33;4.87;;;4.53;;
2257;SDS011;1136;51.574;7.706;2023-06-05T14:55:01;4.70;;;4.20;;
2257;SDS011;1136;51.574;7.706;2023-06-05T14:57:33;5.57;;;4.40;;
2257;SDS011;1136;51.574;7.706;2023-06-05T15:00:01;5.93;;;4.27;;
2257;SDS011;1136;51.574;7.706;2023-06-05T15:02:31;3.40;;;3.20;;
2257;SDS011;1136;51.574;7.706;2023-06-05T15:04:58;6.63;;;4.07;;
2257;SDS011;1136;51.574;7.706;2023-06-05T15:07:31;3.97;;;3.67;;
2257;SDS011;1136;51.574;7.706;2023-06-05T15:10:01;3.90;;;3.60;;
2257;SDS011;1136;51.574;7.706;2023-06-05T15:12:28;5.63;;;4.53;;
2257;SDS011;1136;51.574;7.706;2023-06-05T15:14:54;5.87;;;4.10;;
2257;SDS011;1136;51.574;7.706;2023-06-05T15:17:41;4.27;;;3.50;;
2257;SDS011;1136;51.574;7.706;2023-06-05T15:20:08;3.47;;;3.27;;
2257;SDS011;1136;51.574;7.706;2023-06-05T15:22:35;4.90;;;4.50;;
2257;SDS011;1136;51.574;7.706;2023-06-05T15:25:02;3.90;;;3.60;;
2257;SDS011;1136;51.574;7.706;2023-06-05T15:27:29;3.40;;;3.10;;
2257;SDS011;1136;51.574;7.706;2023-06-05T15:29:55;6.80;;;3.70;;
2257;SDS011;1136;51.574;7.706;2023-06-05T15:32:22;4.77;;;4.40;;
2257;SDS011;1136;51.574;7.706;2023-06-05T15:34:49;4.33;;;3.93;;
2257;SDS011;1136;51.574;7.706;2023-06-05T15:37:18;3.37;;;3.13;;
2257;SDS011;1136;51.574;7.706;2023-06-05T15:39:44;3.77;;;3.47;;
2257;SDS011;1136;51.574;7.706;2023-06-05T15:42:11;4.20;;;3.80;;
2257;SDS011;1136;51.574;7.706;2023-06-05T15:44:39;4.17;;;3.77;;
2257;SDS011;1136;51.574;7.706;2023-06-05T15:47:06;4.13;;;3.73;;
2257;SDS011;1136;51.574;7.706;2023-06-05T15:49:33;5.83;;;5.17;;
2257;SDS011;1136;51.574;7.706;2023-06-05T15:52:00;3.80;;;3.50;;
2257;SDS011;1136;51.574;7.706;2023-06-05T15:54:27;4.93;;;2.93;;
2257;SDS011;1136;51.574;7.706;2023-06-05T15:57:06;4.13;;;3.73;;
2257;SDS011;1136;51.574;7.706;2023-06-05T15:59:34;6.30;;;3.90;;
2257;SDS011;1136;51.574;7.706;2023-06-05T16:02:01;4.73;;;3.43;;
2257;SDS011;1136;51.574;7.706;2023-06-05T16:04:29;3.97;;;3.57;;
2257;SDS011;1136;51.574;7.706;2023-06-05T16:06:56;3.67;;;3.30;;
2257;SDS011;1136;51.574;7.706;2023-06-05T16:09:22;3.80;;;3.23;;
2257;SDS011;1136;51.574;7.706;2023-06-05T16:11:49;4.80;;;4.10;;
2257;SDS011;1136;51.574;7.706;2023-06-05T16:14:16;4.87;;;3.47;;
2257;SDS011;1136;51.574;7.706;2023-06-05T16:16:43;5.10;;;3.50;;
2257;SDS011;1136;51.574;7.706;2023-06-05T16:19:09;5.23;;;4.73;;
2257;SDS011;1136;51.574;7.706;2023-06-05T16:21:36;4.90;;;3.73;;
2257;SDS011;1136;51.574;7.706;2023-06-05T16:24:04;4.27;;;3.97;;
2257;SDS011;1136;51.574;7.706;2023-06-05T16:26:31;3.97;;;3.67;;
2257;SDS011;1136;51.574;7.706;2023-06-05T16:28:58;4.93;;;4.57;;
2257;SDS011;1136;51.574;7.706;2023-06-05T16:31:24;7.17;;;4.80;;
2257;SDS011;1136;51.574;7.706;2023-06-05T16:33:51;3.40;;;3.20;;
2257;SDS011;1136;51.574;7.706;2023-06-05T16:36:18;8.60;;;4.40;;
2257;SDS011;1136;51.574;7.706;2023-06-05T16:38:44;2.70;;;2.50;;
2257;SDS011;1136;51.574;7.706;2023-06-05T16:41:11;3.40;;;3.20;;
2257;SDS011;1136;51.574;7.706;2023-06-05T16:43:38;6.20;;;3.90;;
2257;SDS011;1136;51.574;7.706;2023-06-05T16:46:05;3.10;;;2.90;;
2257;SDS011;1136;51.574;7.706;2023-06-05T16:48:32;7.40;;;3.30;;
2257;SDS011;1136;51.574;7.706;2023-06-05T16:50:58;5.60;;;3.73;;
2257;SDS011;1136;51.574;7.706;2023-06-05T16:53:25;3.40;;;3.10;;
2257;SDS011;1136;51.574;7.706;2023-06-05T16:55:52;4.23;;;3.10;;
2257;SDS011;1136;51.574;7.706;2023-06-05T16:58:18;3.83;;;3.40;;
2257;SDS011;1136;51.574;7.706;2023-06-05T17:00:46;6.10;;;2.97;;
2257;SDS011;1136;51.574;7.706;2023-06-05T17:03:13;4.13;;;3.83;;
2257;SDS011;1136;51.574;7.706;2023-06-05T17:05:41;3.97;;;3.70;;
2257;SDS011;1136;51.574;7.706;2023-06-05T17:08:08;3.47;;;3.17;;
2257;SDS011;1136;51.574;7.706;2023-06-05T17:10:36;3.70;;;3.40;;
2257;SDS011;1136;51.574;7.706;2023-06-05T17:13:02;3.80;;;3.50;;
2257;SDS011;1136;51.574;7.706;2023-06-05T17:15:29;3.73;;;3.10;;
2257;SDS011;1136;51.574;7.706;2023-06-05T17:17:56;3.40;;;3.20;;
2257;SDS011;1136;51.574;7.706;2023-06-05T17:20:23;4.37;;;3.53;;
2257;SDS011;1136;51.574;7.706;2023-06-05T17:22:49;3.50;;;3.20;;
2257;SDS011;1136;51.574;7.706;2023-06-05T17:25:16;3.80;;;3.37;;
2257;SDS011;1136;51.574;7.706;2023-06-05T17:27:43;3.50;;;3.10;;
2257;SDS011;1136;51.574;7.706;2023-06-05T17:30:10;3.20;;;2.90;;
2257;SDS011;1136;51.574;7.706;2023-06-05T17:32:38;4.50;;;3.10;;
2257;SDS011;1136;51.574;7.706;2023-06-05T17:35:05;3.37;;;3.17;;
2257;SDS011;1136;51.574;7.706;2023-06-05T17:37:32;3.80;;;3.10;;
2257;SDS011;1136;51.574;7.706;2023-06-05T17:39:59;3.80;;;3.40;;
2257;SDS011;1136;51.574;7.706;2023-06-05T17:42:26;2.50;;;2.30;;
2257;SDS011;1136;51.574;7.706;2023-06-05T17:44:54;3.40;;;3.20;;
2257;SDS011;1136;51.574;7.706;2023-06-05T17:47:20;4.37;;;3.40;;
2257;SDS011;1136;51.574;7.706;2023-06-05T17:49:47;3.10;;;2.70;;
2257;SDS011;1136;51.574;7.706;2023-06-05T17:52:16;4.07;;;3.13;;